createdAt,value
2016-08-16T00:00:02.871Z,74.41
2016-08-16T00:01:02.848Z,73.84
2016-08-16T00:02:02.819Z,74.7
2016-08-16T00:03:02.797Z,74.51
2016-08-16T00:04:02.773Z,74.32
2016-08-16T00:05:02.747Z,74.41
2016-08-16T00:06:02.727Z,74.41
2016-08-16T00:07:02.714Z,74.04
2016-08-16T00:08:02.680Z,74.41
2016-08-16T00:09:02.658Z,74.51
2016-08-16T00:10:02.639Z,74.8
2016-08-16T00:11:02.617Z,74.61
2016-08-16T00:12:02.589Z,74.51
2016-08-16T00:13:02.566Z,74.61
2016-08-16T00:14:02.544Z,74.51
2016-08-16T00:15:02.519Z,75.09
2016-08-16T00:16:02.497Z,74.9
2016-08-16T00:17:02.474Z,75.09
2016-08-16T00:18:02.450Z,74.9
2016-08-16T00:19:02.427Z,75.27
2016-08-16T00:20:02.404Z,75.09
2016-08-16T00:21:02.381Z,75.09
2016-08-16T00:22:02.356Z,75.47
2016-08-16T00:23:02.336Z,75.09
2016-08-16T00:24:02.313Z,75.66
2016-08-16T00:25:02.291Z,75.52
2016-08-16T00:26:02.265Z,75.47
2016-08-16T00:27:02.243Z,75.66
2016-08-16T00:28:02.224Z,75.76
2016-08-16T00:29:02.196Z,75.85
2016-08-16T00:30:02.174Z,76.23
2016-08-16T00:31:02.151Z,76.14
2016-08-16T00:32:02.132Z,75.85
2016-08-16T00:33:02.105Z,75.95
2016-08-16T00:34:02.080Z,76.04
2016-08-16T00:35:02.058Z,75.91
2016-08-16T00:36:02.035Z,75.91
2016-08-16T00:37:02.012Z,75.81
2016-08-16T00:38:01.990Z,76.39
2016-08-16T00:39:01.968Z,76.39
2016-08-16T00:40:01.941Z,76.48
2016-08-16T00:41:01.919Z,76.77
2016-08-16T00:42:01.896Z,76.96
2016-08-16T00:43:01.873Z,76.86
2016-08-16T00:44:01.853Z,76.77
2016-08-16T00:45:01.840Z,76.67
2016-08-16T00:46:01.803Z,76.57
2016-08-16T00:47:01.781Z,76.96
2016-08-16T00:48:01.755Z,76.86
2016-08-16T00:49:01.736Z,77.06
2016-08-16T00:50:01.710Z,77.25
2016-08-16T00:51:01.687Z,77.15
2016-08-16T00:52:01.664Z,77.06
2016-08-16T00:53:01.640Z,77.25
2016-08-16T00:54:01.615Z,77.15
2016-08-16T00:55:01.591Z,77.44
2016-08-16T00:56:01.571Z,77.25
2016-08-16T00:57:02.238Z,77.44
2016-08-16T00:58:01.522Z,77.25
2016-08-16T00:59:01.500Z,77.72
2016-08-16T01:00:01.476Z,77.72
2016-08-16T01:01:01.460Z,77.82
2016-08-16T01:02:01.431Z,77.92
2016-08-16T01:03:01.411Z,77.82
2016-08-16T01:04:01.381Z,77.82
2016-08-16T01:05:01.361Z,78.68
2016-08-16T01:06:01.336Z,78.49
2016-08-16T01:07:01.313Z,78.58
2016-08-16T01:08:01.287Z,78.49
2016-08-16T01:09:01.263Z,78.2
2016-08-16T01:10:01.242Z,78.49
2016-08-16T01:11:01.216Z,78.58
2016-08-16T01:12:01.199Z,78.2
2016-08-16T01:13:01.170Z,78.68
2016-08-16T01:14:01.161Z,78.93
2016-08-16T01:15:01.127Z,79.02
2016-08-16T01:16:01.100Z,78.74
2016-08-16T01:17:01.084Z,78.64
2016-08-16T01:18:01.055Z,78.78
2016-08-16T01:19:01.037Z,79.25
2016-08-16T01:20:01.007Z,79.31
2016-08-16T01:21:00.984Z,79.31
2016-08-16T01:22:00.957Z,79.41
2016-08-16T01:23:00.936Z,79.02
2016-08-16T01:24:00.912Z,79.69
2016-08-16T01:25:00.890Z,79.6
2016-08-16T01:26:00.866Z,79.31
2016-08-16T01:27:00.844Z,79.41
2016-08-16T01:28:00.816Z,79.69
2016-08-16T01:29:00.796Z,79.88
2016-08-16T01:30:00.771Z,79.6
2016-08-16T01:31:00.747Z,79.69
2016-08-16T01:32:00.724Z,80.07
2016-08-16T01:33:00.700Z,80.17
2016-08-16T01:34:00.677Z,79.98
2016-08-16T01:35:00.652Z,80.55
2016-08-16T01:36:00.629Z,80.55
2016-08-16T01:37:00.606Z,80.46
2016-08-16T01:38:00.584Z,80.36
2016-08-16T01:39:00.563Z,80.27
2016-08-16T01:40:00.535Z,80.27
2016-08-16T01:41:00.510Z,80.55
2016-08-16T01:42:00.483Z,80.55
2016-08-16T01:43:00.469Z,80.65
2016-08-16T01:44:00.438Z,80.74
2016-08-16T01:45:00.415Z,80.65
2016-08-16T01:46:00.392Z,80.65
2016-08-16T01:47:00.367Z,80.74
2016-08-16T01:48:00.345Z,80.55
2016-08-16T01:49:00.319Z,80.46
2016-08-16T01:50:00.297Z,80.55
2016-08-16T01:51:00.277Z,80.65
2016-08-16T01:52:00.256Z,80.84
2016-08-16T01:53:00.254Z,81.6
2016-08-16T01:54:00.200Z,81.22
2016-08-16T01:55:00.178Z,81.13
2016-08-16T01:56:00.151Z,81.13
2016-08-16T01:57:00.129Z,81.32
2016-08-16T01:58:00.106Z,81.22
2016-08-16T01:59:00.080Z,81.27
2016-08-16T02:00:00.058Z,81.13
2016-08-16T02:01:00.035Z,81.51
2016-08-16T02:02:00.009Z,81.09
2016-08-16T02:02:59.983Z,81.37
2016-08-16T02:03:59.960Z,81.37
2016-08-16T02:04:59.939Z,81.09
2016-08-16T02:05:59.912Z,81.56
2016-08-16T02:06:59.896Z,81.47
2016-08-16T02:07:59.866Z,81.66
2016-08-16T02:08:59.842Z,81.47
2016-08-16T02:09:59.816Z,81.27
2016-08-16T02:10:59.791Z,81.47
2016-08-16T02:11:59.770Z,81.47
2016-08-16T02:12:59.744Z,81.47
2016-08-16T02:13:59.735Z,81.56
2016-08-16T02:14:59.696Z,81.37
2016-08-16T02:15:59.674Z,81.37
2016-08-16T02:16:59.650Z,81.37
2016-08-16T02:17:59.626Z,81.66
2016-08-16T02:18:59.601Z,81.85
2016-08-16T02:19:59.577Z,82.23
2016-08-16T02:20:59.553Z,81.85
2016-08-16T02:21:59.531Z,81.76
2016-08-16T02:22:59.505Z,81.76
2016-08-16T02:23:59.480Z,82.23
2016-08-16T02:24:59.458Z,82.04
2016-08-16T02:25:59.435Z,81.85
2016-08-16T02:26:59.415Z,81.95
2016-08-16T02:27:59.386Z,81.76
2016-08-16T02:28:59.363Z,81.85
2016-08-16T02:29:59.339Z,81.95
2016-08-16T02:30:59.313Z,81.76
2016-08-16T02:31:59.293Z,82.52
2016-08-16T02:32:59.265Z,82.42
2016-08-16T02:33:59.239Z,82.71
2016-08-16T02:34:59.223Z,82.14
2016-08-16T02:35:59.203Z,82.32
2016-08-16T02:36:59.172Z,82.32
2016-08-16T02:37:59.147Z,82.9
2016-08-16T02:38:59.120Z,82.42
2016-08-16T02:39:59.103Z,82.61
2016-08-16T02:40:59.070Z,82.9
2016-08-16T02:41:59.047Z,83
2016-08-16T02:42:59.023Z,82.81
2016-08-16T02:43:59.002Z,82.81
2016-08-16T02:44:58.974Z,82.81
2016-08-16T02:45:58.949Z,82.81
2016-08-16T02:46:58.927Z,83.09
2016-08-16T02:47:58.900Z,82.9
2016-08-16T02:48:58.878Z,82.9
2016-08-16T02:49:58.854Z,82.81
2016-08-16T02:50:58.829Z,83.47
2016-08-16T02:51:58.803Z,83.47
2016-08-16T02:52:58.781Z,83.28
2016-08-16T02:53:58.758Z,83.38
2016-08-16T02:54:58.733Z,83.38
2016-08-16T02:55:58.707Z,83.86
2016-08-16T02:56:58.682Z,83.76
2016-08-16T02:57:58.658Z,83.43
2016-08-16T02:58:58.635Z,83.38
2016-08-16T02:59:58.611Z,83.38
2016-08-16T03:00:58.588Z,83.67
2016-08-16T03:01:58.564Z,83.67
2016-08-16T03:02:58.537Z,83.62
2016-08-16T03:03:58.512Z,83.24
2016-08-16T03:04:58.490Z,83.81
2016-08-16T03:05:58.466Z,83.81
2016-08-16T03:06:58.442Z,83.86
2016-08-16T03:07:58.428Z,83.81
2016-08-16T03:08:58.394Z,83.72
2016-08-16T03:09:58.369Z,83.72
2016-08-16T03:10:58.344Z,84
2016-08-16T03:11:58.333Z,84.48
2016-08-16T03:12:58.295Z,84.29
2016-08-16T03:13:58.269Z,84.1
2016-08-16T03:14:58.247Z,84.29
2016-08-16T03:15:58.222Z,84.1
2016-08-16T03:16:58.197Z,84.1
2016-08-16T03:17:58.174Z,84.2
2016-08-16T03:18:58.147Z,84.1
2016-08-16T03:19:58.125Z,84.2
2016-08-16T03:20:58.102Z,84.1
2016-08-16T03:21:58.079Z,84.2
2016-08-16T03:22:58.052Z,84.2
2016-08-16T03:23:58.189Z,84.1
2016-08-16T03:24:58.001Z,84
2016-08-16T03:25:57.980Z,84
2016-08-16T03:26:57.959Z,84.48
2016-08-16T03:27:57.931Z,84.39
2016-08-16T03:28:57.905Z,84.2
2016-08-16T03:29:57.882Z,84.39
2016-08-16T03:30:57.859Z,84.39
2016-08-16T03:31:57.839Z,84.14
2016-08-16T03:32:57.812Z,84.48
2016-08-16T03:33:57.786Z,83.86
2016-08-16T03:34:57.761Z,84.29
2016-08-16T03:35:57.735Z,84.48
2016-08-16T03:36:57.713Z,84.67
2016-08-16T03:37:57.689Z,84.67
2016-08-16T03:38:57.670Z,84.77
2016-08-16T03:39:58.357Z,84.48
2016-08-16T03:40:57.615Z,84.86
2016-08-16T03:41:57.593Z,84.1
2016-08-16T03:42:57.566Z,84.86
2016-08-16T03:43:57.543Z,84.77
2016-08-16T03:44:57.517Z,83.81
2016-08-16T03:45:57.494Z,84.1
2016-08-16T03:46:57.469Z,83.72
2016-08-16T03:47:57.446Z,84.67
2016-08-16T03:48:57.430Z,84
2016-08-16T03:49:57.399Z,83.72
2016-08-16T03:50:57.374Z,84.48
2016-08-16T03:51:57.348Z,85.05
2016-08-16T03:52:57.337Z,83.91
2016-08-16T03:53:57.302Z,84.67
2016-08-16T03:54:57.278Z,84.67
2016-08-16T03:55:57.254Z,84.48
2016-08-16T03:56:57.226Z,84.39
2016-08-16T03:57:57.897Z,84.77
2016-08-16T03:58:57.180Z,84.48
2016-08-16T03:59:57.168Z,84.58
2016-08-16T04:00:57.131Z,84.96
2016-08-16T04:01:57.111Z,84.48
2016-08-16T04:02:57.081Z,84.86
2016-08-16T04:03:57.055Z,84.96
2016-08-16T04:04:57.034Z,84.67
2016-08-16T04:05:57.011Z,85.15
2016-08-16T04:06:56.983Z,84.96
2016-08-16T04:07:56.959Z,85.53
2016-08-16T04:08:56.932Z,85.44
2016-08-16T04:09:56.916Z,85.25
2016-08-16T04:10:56.887Z,85.44
2016-08-16T04:11:56.863Z,85.34
2016-08-16T04:12:56.837Z,85.25
2016-08-16T04:13:56.813Z,85.15
2016-08-16T04:14:56.788Z,85.25
2016-08-16T04:15:56.761Z,85.15
2016-08-16T04:16:56.738Z,85.53
2016-08-16T04:17:56.716Z,85.72
2016-08-16T04:18:56.696Z,85.53
2016-08-16T04:19:56.665Z,85.72
2016-08-16T04:20:56.641Z,86.01
2016-08-16T04:21:56.624Z,85.63
2016-08-16T04:22:56.593Z,85.82
2016-08-16T04:23:56.576Z,85.63
2016-08-16T04:24:56.545Z,86.01
2016-08-16T04:25:56.519Z,86.01
2016-08-16T04:26:56.496Z,85.72
2016-08-16T04:27:56.469Z,85.82
2016-08-16T04:28:56.446Z,85.63
2016-08-16T04:29:57.732Z,85.91
2016-08-16T04:30:56.396Z,85.82
2016-08-16T04:31:56.378Z,86.3
2016-08-16T04:32:56.348Z,86.3
2016-08-16T04:33:56.352Z,86.01
2016-08-16T04:34:56.300Z,85.91
2016-08-16T04:35:56.274Z,85.72
2016-08-16T04:36:56.251Z,85.72
2016-08-16T04:37:56.435Z,86.01
2016-08-16T04:38:56.202Z,85.82
2016-08-16T04:39:56.178Z,85.91
2016-08-16T04:40:56.153Z,86.01
2016-08-16T04:41:56.247Z,85.72
2016-08-16T04:42:56.105Z,85.72
2016-08-16T04:43:56.079Z,85.82
2016-08-16T04:44:56.107Z,85.44
2016-08-16T04:45:56.030Z,85.63
2016-08-16T04:46:56.013Z,85.63
2016-08-16T04:47:55.983Z,85.63
2016-08-16T04:48:55.959Z,85.63
2016-08-16T04:49:55.946Z,85.44
2016-08-16T04:50:55.957Z,85.34
2016-08-16T04:51:55.887Z,85.72
2016-08-16T04:52:55.864Z,85.53
2016-08-16T04:53:55.838Z,85.25
2016-08-16T04:54:55.973Z,85.44
2016-08-16T04:55:55.795Z,85.25
2016-08-16T04:56:55.764Z,85.25
2016-08-16T04:57:55.741Z,85.44
2016-08-16T04:58:55.717Z,85.1
2016-08-16T04:59:55.693Z,85.05
2016-08-16T05:00:55.667Z,85.25
2016-08-16T05:01:55.643Z,85.15
2016-08-16T05:02:55.620Z,85.34
2016-08-16T05:03:55.822Z,85.19
2016-08-16T05:04:55.583Z,85.19
2016-08-16T05:05:55.551Z,85.38
2016-08-16T05:06:55.526Z,85.29
2016-08-16T05:07:55.499Z,85.58
2016-08-16T05:08:55.476Z,85.19
2016-08-16T05:09:55.472Z,85
2016-08-16T05:10:55.428Z,85
2016-08-16T05:11:55.406Z,84.91
2016-08-16T05:12:55.379Z,84.81
2016-08-16T05:13:55.356Z,85
2016-08-16T05:14:55.333Z,85
2016-08-16T05:15:55.309Z,84.72
2016-08-16T05:16:55.284Z,84.81
2016-08-16T05:17:55.261Z,85
2016-08-16T05:18:55.399Z,84.43
2016-08-16T05:19:55.215Z,84.43
2016-08-16T05:20:55.190Z,84.43
2016-08-16T05:21:55.167Z,84.43
2016-08-16T05:22:55.142Z,84.72
2016-08-16T05:23:55.770Z,84.14
2016-08-16T05:24:55.096Z,84.52
2016-08-16T05:25:55.071Z,84.23
2016-08-16T05:26:55.048Z,84.52
2016-08-16T05:27:55.025Z,84.72
2016-08-16T05:28:55.006Z,84.81
2016-08-16T05:29:54.977Z,84.05
2016-08-16T05:30:54.956Z,84.14
2016-08-16T05:31:54.931Z,84.14
2016-08-16T05:32:54.907Z,84.14
2016-08-16T05:33:54.885Z,84.28
2016-08-16T05:34:54.860Z,84.14
2016-08-16T05:35:54.835Z,83.47
2016-08-16T05:36:54.821Z,84.09
2016-08-16T05:37:54.952Z,83.99
2016-08-16T05:38:54.927Z,83.8
2016-08-16T05:39:54.783Z,83.7
2016-08-16T05:40:54.718Z,83.51
2016-08-16T05:41:54.719Z,83.8
2016-08-16T05:42:54.673Z,83.42
2016-08-16T05:43:54.650Z,83.42
2016-08-16T05:44:54.628Z,83.51
2016-08-16T05:45:54.604Z,83.61
2016-08-16T05:46:54.581Z,83.13
2016-08-16T05:47:54.563Z,83.04
2016-08-16T05:48:54.538Z,82.84
2016-08-16T05:49:54.510Z,82.84
2016-08-16T05:50:54.493Z,82.94
2016-08-16T05:51:54.465Z,83.04
2016-08-16T05:52:54.442Z,83.04
2016-08-16T05:53:54.441Z,83.04
2016-08-16T05:54:54.398Z,82.46
2016-08-16T05:55:54.720Z,82.65
2016-08-16T05:56:54.351Z,82.56
2016-08-16T05:57:54.324Z,81.99
2016-08-16T05:58:54.304Z,81.93
2016-08-16T05:59:54.290Z,82.03
2016-08-16T06:00:54.264Z,82.03
2016-08-16T06:01:54.290Z,82.31
2016-08-16T06:02:54.212Z,81.93
2016-08-16T06:03:54.191Z,81.55
2016-08-16T06:04:54.166Z,81.55
2016-08-16T06:05:54.145Z,81.55
2016-08-16T06:06:54.123Z,81.07
2016-08-16T06:07:54.100Z,81.55
2016-08-16T06:08:54.075Z,81.55
2016-08-16T06:09:54.053Z,81.36
2016-08-16T06:10:54.032Z,81.07
2016-08-16T06:11:54.010Z,80.88
2016-08-16T06:12:54.111Z,80.88
2016-08-16T06:13:53.966Z,80.3
2016-08-16T06:14:53.949Z,80.69
2016-08-16T06:15:53.920Z,80.82
2016-08-16T06:16:53.899Z,80.25
2016-08-16T06:17:53.878Z,80.44
2016-08-16T06:18:54.633Z,80.35
2016-08-16T06:19:54.562Z,79.96
2016-08-16T06:20:54.643Z,79.96
2016-08-16T06:21:54.072Z,79.39
2016-08-16T06:22:53.776Z,79.77
2016-08-16T06:23:53.916Z,79.2
2016-08-16T06:24:53.742Z,79.2
2016-08-16T06:25:54.574Z,78.81
2016-08-16T06:26:53.689Z,78.91
2016-08-16T06:27:53.668Z,78.95
2016-08-16T06:28:53.647Z,78.57
2016-08-16T06:29:54.519Z,78.38
2016-08-16T06:30:54.464Z,78.47
2016-08-16T06:31:53.603Z,77.9
2016-08-16T06:32:53.568Z,77.9
2016-08-16T06:33:53.552Z,77.51
2016-08-16T06:34:53.530Z,77.51
2016-08-16T06:35:53.513Z,77.04
2016-08-16T06:36:53.488Z,76.89
2016-08-16T06:37:53.467Z,76.69
2016-08-16T06:38:53.446Z,76.21
2016-08-16T06:39:53.427Z,76.5
2016-08-16T06:40:53.520Z,75.93
2016-08-16T06:41:53.389Z,76.02
2016-08-16T06:42:53.386Z,75.54
2016-08-16T06:43:53.905Z,75.1
2016-08-16T06:44:53.855Z,75.01
2016-08-16T06:45:54.309Z,74.43
2016-08-16T06:46:53.525Z,74.24
2016-08-16T06:47:53.530Z,73.86
2016-08-16T06:48:54.241Z,73.57
2016-08-16T06:49:53.448Z,73.19
2016-08-16T06:50:54.169Z,72.71
2016-08-16T06:51:53.452Z,72.84
2016-08-16T06:52:53.287Z,73.13
2016-08-16T06:53:54.219Z,73.32
2016-08-16T06:54:54.705Z,72.45
2016-08-16T06:55:53.605Z,72.36
2016-08-16T06:56:53.399Z,72.07
2016-08-16T06:57:53.424Z,71.4
2016-08-16T06:58:53.761Z,71.88
2016-08-16T06:59:53.307Z,71.21
2016-08-16T07:00:53.614Z,71.11
2016-08-16T07:01:53.691Z,71.4
2016-08-16T07:02:53.710Z,71.31
2016-08-16T07:03:54.444Z,71.05
2016-08-16T07:04:53.189Z,71.15
2016-08-16T07:05:54.481Z,70.83
2016-08-16T07:06:53.241Z,70.76
2016-08-16T07:07:53.119Z,70.73
2016-08-16T07:08:53.091Z,70.57
2016-08-16T07:09:53.598Z,70.86
2016-08-16T07:10:53.849Z,70.67
2016-08-16T07:11:54.365Z,70
2016-08-16T07:12:53.415Z,70
2016-08-16T07:13:54.888Z,70.19
2016-08-16T07:14:52.805Z,69.71
2016-08-16T07:15:53.960Z,69.52
2016-08-16T07:16:52.881Z,69.23
2016-08-16T07:17:52.838Z,68.98
2016-08-16T07:18:53.707Z,68.79
2016-08-16T07:19:53.484Z,68.88
2016-08-16T07:20:53.297Z,68.5
2016-08-16T07:21:54.015Z,68.4
2016-08-16T07:22:53.622Z,68.12
2016-08-16T07:23:53.862Z,68.21
2016-08-16T07:24:52.868Z,68.02
2016-08-16T07:25:54.007Z,67.54
2016-08-16T07:26:53.293Z,67.63
2016-08-16T07:27:53.663Z,67.19
2016-08-16T07:28:52.785Z,67.47
2016-08-16T07:29:53.558Z,67.19
2016-08-16T07:30:52.748Z,66.9
2016-08-16T07:31:52.548Z,66.03
2016-08-16T07:32:53.515Z,65.78
2016-08-16T07:33:52.525Z,66.16
2016-08-16T07:34:52.850Z,65.69
2016-08-16T07:35:53.328Z,65.3
2016-08-16T07:36:53.451Z,65.01
2016-08-16T07:37:53.372Z,65.01
2016-08-16T07:38:52.577Z,64.47
2016-08-16T07:39:52.632Z,64.28
2016-08-16T07:40:53.110Z,63.6
2016-08-16T07:41:52.394Z,63.79
2016-08-16T07:42:53.375Z,63.51
2016-08-16T07:43:52.615Z,63.51
2016-08-16T07:44:53.780Z,63.22
2016-08-16T07:45:52.303Z,63.6
2016-08-16T07:46:52.500Z,62.77
2016-08-16T07:47:52.509Z,62.77
2016-08-16T07:48:52.487Z,61.81
2016-08-16T07:49:53.188Z,62.03
2016-08-16T07:50:53.000Z,61.36
2016-08-16T07:51:52.834Z,60.88
2016-08-16T07:52:53.927Z,60.97
2016-08-16T07:53:52.940Z,60.49
2016-08-16T07:54:52.909Z,60.88
2016-08-16T07:55:52.933Z,60.59
2016-08-16T07:56:53.250Z,60.42
2016-08-16T07:57:54.073Z,60.62
2016-08-16T07:58:53.008Z,59.47
2016-08-16T07:59:52.938Z,59.85
2016-08-16T08:00:52.843Z,59.56
2016-08-16T08:01:52.993Z,58.89
2016-08-16T08:02:52.944Z,59.08
2016-08-16T08:03:52.825Z,58.5
2016-08-16T08:04:52.781Z,58.31
2016-08-16T08:05:53.661Z,58.22
2016-08-16T08:06:52.397Z,57.73
2016-08-16T08:07:53.137Z,57.76
2016-08-16T08:08:53.171Z,57.18
2016-08-16T08:09:53.221Z,56.9
2016-08-16T08:10:52.326Z,56.99
2016-08-16T08:11:53.092Z,56.35
2016-08-16T08:12:52.272Z,55.77
2016-08-16T08:13:52.473Z,55.48
2016-08-16T08:14:53.614Z,55.02
2016-08-16T08:15:52.324Z,55.12
2016-08-16T08:16:52.597Z,54.93
2016-08-16T08:17:52.290Z,54.25
2016-08-16T08:18:52.219Z,54.44
2016-08-16T08:19:52.004Z,54.25
2016-08-16T08:20:52.456Z,54.06
2016-08-16T08:21:52.777Z,53.58
2016-08-16T08:22:52.094Z,53.31
2016-08-16T08:23:52.698Z,53.31
2016-08-16T08:24:52.810Z,53.22
2016-08-16T08:25:51.989Z,52.93
2016-08-16T08:26:52.630Z,52.64
2016-08-16T08:27:52.578Z,52.73
2016-08-16T08:28:52.816Z,52.55
2016-08-16T08:29:51.767Z,52.35
2016-08-16T08:30:52.827Z,52.25
2016-08-16T08:31:53.346Z,51.97
2016-08-16T08:32:52.101Z,51.87
2016-08-16T08:33:51.832Z,51.41
2016-08-16T08:34:52.874Z,51.32
2016-08-16T08:35:52.074Z,51.22
2016-08-16T08:36:52.232Z,50.84
2016-08-16T08:37:52.654Z,50.26
2016-08-16T08:38:52.050Z,50.09
2016-08-16T08:39:52.201Z,50.28
2016-08-16T08:40:51.808Z,49.9
2016-08-16T08:41:52.574Z,49.8
2016-08-16T08:42:53.145Z,49.7
2016-08-16T08:43:53.008Z,49.6
2016-08-16T08:44:51.975Z,49.6
2016-08-16T08:45:52.873Z,49.12
2016-08-16T08:46:52.911Z,49.24
2016-08-16T08:47:53.145Z,48.95
2016-08-16T08:48:52.001Z,48.76
2016-08-16T08:49:53.095Z,48.3
2016-08-16T08:50:52.136Z,48.21
2016-08-16T08:51:52.774Z,47.53
2016-08-16T08:52:52.154Z,47.14
2016-08-16T08:53:53.159Z,46.85
2016-08-16T08:54:53.271Z,46.75
2016-08-16T08:55:52.198Z,46.68
2016-08-16T08:56:52.167Z,46.3
2016-08-16T08:57:51.974Z,46.49
2016-08-16T08:58:53.104Z,45.72
2016-08-16T08:59:52.031Z,45.72
2016-08-16T09:00:51.953Z,45.91
2016-08-16T09:01:52.376Z,45.42
2016-08-16T09:02:51.938Z,45.14
2016-08-16T09:03:52.052Z,45.33
2016-08-16T09:04:52.208Z,45.45
2016-08-16T09:05:52.542Z,44.96
2016-08-16T09:06:51.620Z,44.48
2016-08-16T09:07:51.433Z,44.57
2016-08-16T09:08:51.295Z,44.19
2016-08-16T09:09:52.433Z,43.82
2016-08-16T09:10:51.995Z,44.12
2016-08-16T09:11:52.259Z,43.54
2016-08-16T09:12:52.384Z,43.73
2016-08-16T09:13:51.691Z,43.44
2016-08-16T09:14:52.419Z,43.73
2016-08-16T09:15:51.951Z,43.82
2016-08-16T09:16:51.907Z,43.51
2016-08-16T09:17:52.503Z,43.71
2016-08-16T09:18:52.517Z,43.61
2016-08-16T09:19:52.741Z,43.41
2016-08-16T09:20:51.988Z,43.61
2016-08-16T09:21:52.123Z,43.71
2016-08-16T09:22:51.466Z,43.61
2016-08-16T09:23:51.272Z,43.78
2016-08-16T09:24:51.894Z,44.07
2016-08-16T09:25:51.340Z,43.78
2016-08-16T09:26:52.068Z,44.07
2016-08-16T09:27:52.148Z,43.78
2016-08-16T09:28:51.311Z,43.8
2016-08-16T09:29:52.182Z,43.88
2016-08-16T09:30:51.167Z,43.78
2016-08-16T09:31:51.105Z,43.9
2016-08-16T09:32:51.401Z,43.51
2016-08-16T09:33:51.073Z,43.32
2016-08-16T09:34:51.065Z,43.13
2016-08-16T09:35:51.146Z,42.76
2016-08-16T09:36:51.046Z,42.76
2016-08-16T09:37:51.035Z,42.93
2016-08-16T09:38:51.030Z,43.41
2016-08-16T09:39:51.093Z,42.86
2016-08-16T09:40:51.102Z,42.93
2016-08-16T09:41:51.003Z,43.32
2016-08-16T09:42:51.006Z,43.41
2016-08-16T09:43:51.138Z,43.61
2016-08-16T09:44:50.976Z,42.91
2016-08-16T09:45:50.951Z,43.23
2016-08-16T09:46:50.939Z,42.91
2016-08-16T09:47:50.938Z,43.4
2016-08-16T09:48:50.952Z,43.68
2016-08-16T09:49:50.906Z,43.88
2016-08-16T09:50:50.894Z,43.3
2016-08-16T09:51:51.042Z,43.59
2016-08-16T09:52:50.870Z,43.78
2016-08-16T09:53:50.930Z,43.59
2016-08-16T09:54:50.844Z,43.59
2016-08-16T09:55:50.828Z,43.59
2016-08-16T09:56:51.076Z,43.98
2016-08-16T09:57:50.806Z,44.05
2016-08-16T09:58:50.797Z,43.66
2016-08-16T09:59:50.883Z,44.05
2016-08-16T10:00:50.770Z,43.76
2016-08-16T10:01:50.751Z,44.15
2016-08-16T10:02:50.738Z,44.05
2016-08-16T10:03:50.811Z,44.34
2016-08-16T10:04:50.711Z,44.34
2016-08-16T10:05:50.764Z,44.24
2016-08-16T10:06:50.684Z,44.24
2016-08-16T10:07:50.681Z,44.34
2016-08-16T10:08:50.654Z,44.42
2016-08-16T10:09:50.753Z,45.09
2016-08-16T10:10:50.736Z,45.28
2016-08-16T10:11:50.664Z,45
2016-08-16T10:12:51.330Z,45.18
2016-08-16T10:13:50.643Z,44.9
2016-08-16T10:14:50.564Z,45.18
2016-08-16T10:15:51.040Z,45.09
2016-08-16T10:16:50.533Z,44.8
2016-08-16T10:17:50.572Z,45.38
2016-08-16T10:18:50.513Z,45.18
2016-08-16T10:19:50.576Z,45.38
2016-08-16T10:20:50.524Z,45.67
2016-08-16T10:21:50.459Z,45.07
2016-08-16T10:22:50.618Z,45.28
2016-08-16T10:23:50.720Z,45.38
2016-08-16T10:24:50.719Z,45.45
2016-08-16T10:25:50.421Z,45.55
2016-08-16T10:26:50.444Z,45.94
2016-08-16T10:27:50.366Z,45.84
2016-08-16T10:28:51.048Z,45.55
2016-08-16T10:29:50.610Z,45.45
2016-08-16T10:30:50.455Z,45.36
2016-08-16T10:31:50.311Z,45.75
2016-08-16T10:32:50.447Z,45.53
2016-08-16T10:33:51.011Z,45.53
2016-08-16T10:34:50.419Z,45.65
2016-08-16T10:35:50.589Z,45.75
2016-08-16T10:36:50.663Z,45.55
2016-08-16T10:37:50.210Z,45.45
2016-08-16T10:38:50.193Z,45.36
2016-08-16T10:39:50.239Z,45.36
2016-08-16T10:40:50.667Z,45.55
2016-08-16T10:41:50.158Z,45.55
2016-08-16T10:42:50.133Z,44.97
2016-08-16T10:43:50.123Z,44.97
2016-08-16T10:44:50.161Z,45.17
2016-08-16T10:45:50.420Z,44.87
2016-08-16T10:46:50.069Z,44.39
2016-08-16T10:47:50.257Z,44.59
2016-08-16T10:48:50.278Z,44.78
2016-08-16T10:49:50.020Z,44.59
2016-08-16T10:50:50.335Z,44.8
2016-08-16T10:51:50.004Z,44.42
2016-08-16T10:52:50.132Z,44.42
2016-08-16T10:53:49.957Z,44.51
2016-08-16T10:54:50.211Z,44.32
2016-08-16T10:55:50.113Z,44.22
2016-08-16T10:56:49.945Z,44.22
2016-08-16T10:57:50.014Z,44.22
2016-08-16T10:58:50.004Z,43.54
2016-08-16T10:59:50.641Z,44.03
2016-08-16T11:00:50.083Z,43.84
2016-08-16T11:01:50.005Z,43.54
2016-08-16T11:02:49.901Z,43.37
2016-08-16T11:03:49.901Z,43.28
2016-08-16T11:04:49.788Z,42.79
2016-08-16T11:05:49.965Z,42.79
2016-08-16T11:06:49.812Z,42.6
2016-08-16T11:08:50.405Z,42.41
2016-08-16T11:09:50.569Z,42.41
2016-08-16T11:10:50.310Z,42.31
2016-08-16T11:11:49.872Z,42.41
2016-08-16T11:12:51.131Z,42.41
2016-08-16T11:13:49.651Z,42.5
2016-08-16T11:14:49.821Z,42.41
2016-08-16T11:15:50.714Z,42.31
2016-08-16T11:16:49.983Z,42.41
2016-08-16T11:17:49.591Z,42.21
2016-08-16T11:18:49.706Z,42.31
2016-08-16T11:19:49.562Z,42.41
2016-08-16T11:20:49.600Z,42.41
2016-08-16T11:21:49.614Z,42.31
2016-08-16T11:22:50.463Z,42.02
2016-08-16T11:23:49.690Z,42.02
2016-08-16T11:24:50.308Z,41.54
2016-08-16T11:25:49.919Z,41.44
2016-08-16T11:26:49.865Z,41.05
2016-08-16T11:27:49.971Z,40.88
2016-08-16T11:28:49.776Z,41.08
2016-08-16T11:29:50.599Z,40.88
2016-08-16T11:30:49.955Z,40.2
2016-08-16T11:31:49.845Z,40.11
2016-08-16T11:32:49.961Z,39.82
2016-08-16T11:33:50.192Z,39.62
2016-08-16T11:34:49.585Z,39.62
2016-08-16T11:35:49.451Z,40.01
2016-08-16T11:36:49.362Z,39.82
2016-08-16T11:37:49.348Z,39.72
2016-08-16T11:38:50.178Z,39.92
2016-08-16T11:39:49.827Z,39.82
2016-08-16T11:40:50.121Z,39.92
2016-08-16T11:41:50.045Z,39.62
2016-08-16T11:42:49.725Z,39.55
2016-08-16T11:43:49.935Z,39.55
2016-08-16T11:44:49.330Z,38.97
2016-08-16T11:45:49.541Z,39.26
2016-08-16T11:46:49.226Z,38.97
2016-08-16T11:47:49.342Z,38.97
2016-08-16T11:48:49.422Z,38.97
2016-08-16T11:49:50.924Z,38.89
2016-08-16T11:50:49.550Z,38.79
2016-08-16T11:51:49.545Z,38.79
2016-08-16T11:52:49.129Z,38.7
2016-08-16T11:53:49.441Z,38.41
2016-08-16T11:54:49.214Z,38.7
2016-08-16T11:55:49.364Z,38.41
2016-08-16T11:56:49.910Z,38.21
2016-08-16T11:57:49.575Z,38.33
2016-08-16T11:58:49.234Z,38.21
2016-08-16T11:59:49.220Z,38.31
2016-08-16T12:00:49.027Z,38.21
2016-08-16T12:01:49.001Z,38.48
2016-08-16T12:02:49.073Z,38.48
2016-08-16T12:03:49.449Z,38.78
2016-08-16T12:04:49.746Z,38.87
2016-08-16T12:05:49.556Z,38.58
2016-08-16T12:06:49.527Z,38.87
2016-08-16T12:07:49.071Z,38.68
2016-08-16T12:08:49.003Z,38.58
2016-08-16T12:09:49.632Z,38.48
2016-08-16T12:10:50.011Z,38.48
2016-08-16T12:11:48.940Z,38.48
2016-08-16T12:12:48.999Z,38.48
2016-08-16T12:13:48.781Z,38.41
2016-08-16T12:14:49.240Z,38.21
2016-08-16T12:15:48.754Z,38.12
2016-08-16T12:16:48.741Z,37.92
2016-08-16T12:17:49.001Z,37.63
2016-08-16T12:18:48.711Z,37.63
2016-08-16T12:19:48.699Z,37.63
2016-08-16T12:20:48.685Z,37.05
2016-08-16T12:21:48.935Z,37.34
2016-08-16T12:22:49.073Z,37.44
2016-08-16T12:23:49.388Z,37.15
2016-08-16T12:24:48.626Z,37.05
2016-08-16T12:25:48.611Z,37.05
2016-08-16T12:26:49.053Z,37.24
2016-08-16T12:27:48.583Z,37.15
2016-08-16T12:28:48.571Z,37.63
2016-08-16T12:29:49.147Z,37.73
2016-08-16T12:30:48.704Z,37.73
2016-08-16T12:31:49.393Z,37.54
2016-08-16T12:32:48.834Z,37.73
2016-08-16T12:33:48.693Z,37.82
2016-08-16T12:34:48.755Z,37.73
2016-08-16T12:35:48.689Z,38.02
2016-08-16T12:36:48.452Z,37.73
2016-08-16T12:37:48.443Z,37.82
2016-08-16T12:38:49.334Z,37.63
2016-08-16T12:39:48.526Z,37.24
2016-08-16T12:40:48.398Z,37.24
2016-08-16T12:41:48.690Z,36.96
2016-08-16T12:42:48.371Z,37.24
2016-08-16T12:43:48.400Z,37.24
2016-08-16T12:44:49.116Z,37.15
2016-08-16T12:45:48.960Z,36.96
2016-08-16T12:46:48.322Z,37.15
2016-08-16T12:47:48.295Z,37.05
2016-08-16T12:48:48.728Z,36.96
2016-08-16T12:49:48.455Z,37.24
2016-08-16T12:50:49.088Z,36.96
2016-08-16T12:51:48.242Z,37.13
2016-08-16T12:52:48.226Z,37.44
2016-08-16T12:53:48.703Z,37.05
2016-08-16T12:54:48.270Z,37.05
2016-08-16T12:55:48.187Z,36.76
2016-08-16T12:56:48.521Z,36.49